sensor_id;sensor_type;location;lat;lon;timestamp;temperature;humidity
16503;DHT22;53067;48.114;11.694;2023-03-16T00:00:18;4.50;83.10
16503;DHT22;53067;48.114;11.694;2023-03-16T00:02:45;4.50;83.30
16503;DHT22;53067;48.114;11.694;2023-03-16T00:05:13;4.50;83.60
16503;DHT22;53067;48.114;11.694;2023-03-16T00:07:42;4.50;83.40
16503;DHT22;53067;48.114;11.694;2023-03-16T00:10:11;4.50;83.70
16503;DHT22;53067;48.114;11.694;2023-03-16T00:12:39;4.40;83.60
16503;DHT22;53067;48.114;11.694;2023-03-16T00:15:10;4.40;83.60
16503;DHT22;53067;48.114;11.694;2023-03-16T00:17:38;4.50;83.70
16503;DHT22;53067;48.114;11.694;2023-03-16T00:20:06;4.50;83.60
16503;DHT22;53067;48.114;11.694;2023-03-16T00:22:34;4.50;83.50
16503;DHT22;53067;48.114;11.694;2023-03-16T00:25:01;4.50;83.20
16503;DHT22;53067;48.114;11.694;2023-03-16T00:27:30;4.50;83.70
16503;DHT22;53067;48.114;11.694;2023-03-16T00:29:57;4.50;82.80
16503;DHT22;53067;48.114;11.694;2023-03-16T00:32:30;4.60;82.70
16503;DHT22;53067;48.114;11.694;2023-03-16T00:34:58;4.50;82.70
16503;DHT22;53067;48.114;11.694;2023-03-16T00:37:28;4.50;82.80
16503;DHT22;53067;48.114;11.694;2023-03-16T00:42:44;4.50;82.70
16503;DHT22;53067;48.114;11.694;2023-03-16T00:45:11;4.50;82.60
16503;DHT22;53067;48.114;11.694;2023-03-16T00:47:39;4.40;82.40
16503;DHT22;53067;48.114;11.694;2023-03-16T00:50:08;4.40;82.30
16503;DHT22;53067;48.114;11.694;2023-03-16T00:52:35;4.40;82.40
16503;DHT22;53067;48.114;11.694;2023-03-16T00:55:03;4.40;82.40
16503;DHT22;53067;48.114;11.694;2023-03-16T00:57:30;4.30;82.30
16503;DHT22;53067;48.114;11.694;2023-03-16T00:59:58;4.30;82.40
16503;DHT22;53067;48.114;11.694;2023-03-16T01:02:27;4.30;82.50
16503;DHT22;53067;48.114;11.694;2023-03-16T01:04:54;4.30;82.50
16503;DHT22;53067;48.114;11.694;2023-03-16T01:07:22;4.30;82.70
16503;DHT22;53067;48.114;11.694;2023-03-16T01:09:50;4.30;82.70
16503;DHT22;53067;48.114;11.694;2023-03-16T01:12:18;4.30;82.60
16503;DHT22;53067;48.114;11.694;2023-03-16T01:14:47;4.30;82.70
16503;DHT22;53067;48.114;11.694;2023-03-16T01:17:16;4.30;82.40
16503;DHT22;53067;48.114;11.694;2023-03-16T01:19:44;4.30;82.40
16503;DHT22;53067;48.114;11.694;2023-03-16T01:22:13;4.30;82.30
16503;DHT22;53067;48.114;11.694;2023-03-16T01:24:41;4.30;82.40
16503;DHT22;53067;48.114;11.694;2023-03-16T01:27:12;4.20;82.40
16503;DHT22;53067;48.114;11.694;2023-03-16T01:29:40;4.20;82.40
16503;DHT22;53067;48.114;11.694;2023-03-16T01:32:09;4.20;82.40
16503;DHT22;53067;48.114;11.694;2023-03-16T01:34:37;4.10;82.40
16503;DHT22;53067;48.114;11.694;2023-03-16T01:37:05;4.20;82.60
16503;DHT22;53067;48.114;11.694;2023-03-16T01:39:32;4.10;82.50
16503;DHT22;53067;48.114;11.694;2023-03-16T01:42:00;4.10;82.50
16503;DHT22;53067;48.114;11.694;2023-03-16T01:44:27;4.10;82.50
16503;DHT22;53067;48.114;11.694;2023-03-16T01:46:57;4.10;82.50
16503;DHT22;53067;48.114;11.694;2023-03-16T01:52:24;4.00;82.50
16503;DHT22;53067;48.114;11.694;2023-03-16T01:54:59;4.00;82.50
16503;DHT22;53067;48.114;11.694;2023-03-16T01:57:29;4.00;82.60
16503;DHT22;53067;48.114;11.694;2023-03-16T02:00:04;3.90;82.60
16503;DHT22;53067;48.114;11.694;2023-03-16T02:02:52;3.90;82.60
16503;DHT22;53067;48.114;11.694;2023-03-16T02:05:37;3.80;82.60
16503;DHT22;53067;48.114;11.694;2023-03-16T02:08:06;3.80;82.50
16503;DHT22;53067;48.114;11.694;2023-03-16T02:10:35;3.80;82.50
16503;DHT22;53067;48.114;11.694;2023-03-16T02:13:03;3.70;82.60
16503;DHT22;53067;48.114;11.694;2023-03-16T02:15:31;3.80;82.50
16503;DHT22;53067;48.114;11.694;2023-03-16T02:18:00;3.70;82.30
16503;DHT22;53067;48.114;11.694;2023-03-16T02:20:49;3.80;82.30
16503;DHT22;53067;48.114;11.694;2023-03-16T02:23:18;3.70;82.00
16503;DHT22;53067;48.114;11.694;2023-03-16T02:29:00;3.70;82.30
16503;DHT22;53067;48.114;11.694;2023-03-16T02:31:25;3.60;82.40
16503;DHT22;53067;48.114;11.694;2023-03-16T02:33:53;3.60;82.40
16503;DHT22;53067;48.114;11.694;2023-03-16T02:36:22;3.50;82.40
16503;DHT22;53067;48.114;11.694;2023-03-16T02:38:49;3.50;82.70
16503;DHT22;53067;48.114;11.694;2023-03-16T02:41:18;3.50;82.60
16503;DHT22;53067;48.114;11.694;2023-03-16T02:43:59;3.50;82.30
16503;DHT22;53067;48.114;11.694;2023-03-16T02:46:27;3.50;82.30
16503;DHT22;53067;48.114;11.694;2023-03-16T02:52:01;3.50;82.20
16503;DHT22;53067;48.114;11.694;2023-03-16T02:54:29;3.50;82.30
16503;DHT22;53067;48.114;11.694;2023-03-16T02:56:56;3.40;82.60
16503;DHT22;53067;48.114;11.694;2023-03-16T02:59:24;3.40;82.50
16503;DHT22;53067;48.114;11.694;2023-03-16T03:01:51;3.40;82.70
16503;DHT22;53067;48.114;11.694;2023-03-16T03:04:19;3.30;82.50
16503;DHT22;53067;48.114;11.694;2023-03-16T03:06:49;3.30;82.50
16503;DHT22;53067;48.114;11.694;2023-03-16T03:09:17;3.30;82.50
16503;DHT22;53067;48.114;11.694;2023-03-16T03:11:46;3.30;82.50
16503;DHT22;53067;48.114;11.694;2023-03-16T03:14:14;3.30;82.50
16503;DHT22;53067;48.114;11.694;2023-03-16T03:16:42;3.30;82.50
16503;DHT22;53067;48.114;11.694;2023-03-16T03:19:11;3.30;82.80
16503;DHT22;53067;48.114;11.694;2023-03-16T03:21:39;3.30;82.60
16503;DHT22;53067;48.114;11.694;2023-03-16T03:24:08;3.30;83.00
16503;DHT22;53067;48.114;11.694;2023-03-16T03:26:37;3.20;82.70
16503;DHT22;53067;48.114;11.694;2023-03-16T03:29:04;3.20;82.90
16503;DHT22;53067;48.114;11.694;2023-03-16T03:31:32;3.20;82.90
16503;DHT22;53067;48.114;11.694;2023-03-16T03:33:59;3.20;82.70
16503;DHT22;53067;48.114;11.694;2023-03-16T03:36:29;3.20;82.40
16503;DHT22;53067;48.114;11.694;2023-03-16T03:38:56;3.20;82.40
16503;DHT22;53067;48.114;11.694;2023-03-16T03:41:24;3.20;82.40
16503;DHT22;53067;48.114;11.694;2023-03-16T03:43:51;3.10;82.00
16503;DHT22;53067;48.114;11.694;2023-03-16T03:46:19;3.10;81.90
16503;DHT22;53067;48.114;11.694;2023-03-16T03:48:46;3.10;81.90
16503;DHT22;53067;48.114;11.694;2023-03-16T03:51:14;3.10;81.80
16503;DHT22;53067;48.114;11.694;2023-03-16T03:53:41;3.00;82.00
16503;DHT22;53067;48.114;11.694;2023-03-16T03:56:09;3.00;82.10
16503;DHT22;53067;48.114;11.694;2023-03-16T03:58:36;2.90;82.10
16503;DHT22;53067;48.114;11.694;2023-03-16T04:01:04;2.90;82.20
16503;DHT22;53067;48.114;11.694;2023-03-16T04:03:32;2.80;82.20
16503;DHT22;53067;48.114;11.694;2023-03-16T04:05:59;2.80;82.30
16503;DHT22;53067;48.114;11.694;2023-03-16T04:08:46;2.70;82.40
16503;DHT22;53067;48.114;11.694;2023-03-16T04:11:14;2.70;82.10
16503;DHT22;53067;48.114;11.694;2023-03-16T04:13:42;2.70;82.60
16503;DHT22;53067;48.114;11.694;2023-03-16T04:16:09;2.70;82.40
16503;DHT22;53067;48.114;11.694;2023-03-16T04:18:58;2.60;82.30
16503;DHT22;53067;48.114;11.694;2023-03-16T04:21:27;2.60;82.00
16503;DHT22;53067;48.114;11.694;2023-03-16T04:23:54;2.60;82.40
16503;DHT22;53067;48.114;11.694;2023-03-16T04:26:22;2.50;82.50
16503;DHT22;53067;48.114;11.694;2023-03-16T04:28:51;2.50;83.20
16503;DHT22;53067;48.114;11.694;2023-03-16T04:31:18;2.40;82.50
16503;DHT22;53067;48.114;11.694;2023-03-16T04:33:46;2.40;82.60
16503;DHT22;53067;48.114;11.694;2023-03-16T04:36:13;2.30;83.40
16503;DHT22;53067;48.114;11.694;2023-03-16T04:38:41;2.30;82.70
16503;DHT22;53067;48.114;11.694;2023-03-16T04:41:09;2.30;82.80
16503;DHT22;53067;48.114;11.694;2023-03-16T04:43:36;2.30;82.70
16503;DHT22;53067;48.114;11.694;2023-03-16T04:46:04;2.30;82.70
16503;DHT22;53067;48.114;11.694;2023-03-16T04:48:32;2.30;82.50
16503;DHT22;53067;48.114;11.694;2023-03-16T04:51:00;2.30;82.50
16503;DHT22;53067;48.114;11.694;2023-03-16T04:53:30;2.30;82.40
16503;DHT22;53067;48.114;11.694;2023-03-16T04:55:58;2.20;82.20
16503;DHT22;53067;48.114;11.694;2023-03-16T04:58:26;2.20;82.40
16503;DHT22;53067;48.114;11.694;2023-03-16T05:00:54;2.20;82.60
16503;DHT22;53067;48.114;11.694;2023-03-16T05:03:22;2.10;82.80
16503;DHT22;53067;48.114;11.694;2023-03-16T05:05:50;2.20;82.90
16503;DHT22;53067;48.114;11.694;2023-03-16T05:08:18;2.20;83.50
16503;DHT22;53067;48.114;11.694;2023-03-16T05:10:45;2.20;82.80
16503;DHT22;53067;48.114;11.694;2023-03-16T05:13:14;2.10;83.00
16503;DHT22;53067;48.114;11.694;2023-03-16T05:15:41;2.10;83.00
16503;DHT22;53067;48.114;11.694;2023-03-16T05:18:09;2.20;82.90
16503;DHT22;53067;48.114;11.694;2023-03-16T05:20:36;2.20;82.90
16503;DHT22;53067;48.114;11.694;2023-03-16T05:23:04;2.10;83.20
16503;DHT22;53067;48.114;11.694;2023-03-16T05:25:33;2.20;83.30
16503;DHT22;53067;48.114;11.694;2023-03-16T05:28:01;2.20;83.00
16503;DHT22;53067;48.114;11.694;2023-03-16T05:30:28;2.20;83.00
16503;DHT22;53067;48.114;11.694;2023-03-16T05:32:56;2.20;82.90
16503;DHT22;53067;48.114;11.694;2023-03-16T05:35:24;2.20;82.90
16503;DHT22;53067;48.114;11.694;2023-03-16T05:37:53;2.20;82.80
16503;DHT22;53067;48.114;11.694;2023-03-16T05:40:21;2.20;82.70
16503;DHT22;53067;48.114;11.694;2023-03-16T05:42:54;2.20;82.90
16503;DHT22;53067;48.114;11.694;2023-03-16T05:45:20;2.20;82.90
16503;DHT22;53067;48.114;11.694;2023-03-16T05:47:47;2.30;83.00
16503;DHT22;53067;48.114;11.694;2023-03-16T05:50:16;2.30;82.80
16503;DHT22;53067;48.114;11.694;2023-03-16T05:52:44;2.40;82.80
16503;DHT22;53067;48.114;11.694;2023-03-16T05:55:14;2.40;82.80
16503;DHT22;53067;48.114;11.694;2023-03-16T05:57:42;2.40;82.70
16503;DHT22;53067;48.114;11.694;2023-03-16T06:00:12;2.40;83.60
16503;DHT22;53067;48.114;11.694;2023-03-16T06:02:42;2.40;83.00
16503;DHT22;53067;48.114;11.694;2023-03-16T06:05:10;2.40;83.10
16503;DHT22;53067;48.114;11.694;2023-03-16T06:07:37;2.40;83.20
16503;DHT22;53067;48.114;11.694;2023-03-16T06:10:06;2.40;83.30
16503;DHT22;53067;48.114;11.694;2023-03-16T06:12:33;2.40;83.40
16503;DHT22;53067;48.114;11.694;2023-03-16T06:15:02;2.40;83.40
16503;DHT22;53067;48.114;11.694;2023-03-16T06:17:31;2.40;84.20
16503;DHT22;53067;48.114;11.694;2023-03-16T06:19:59;2.40;83.60
16503;DHT22;53067;48.114;11.694;2023-03-16T06:22:27;2.40;83.70
16503;DHT22;53067;48.114;11.694;2023-03-16T06:24:55;2.40;83.80
16503;DHT22;53067;48.114;11.694;2023-03-16T06:27:23;2.40;83.90
16503;DHT22;53067;48.114;11.694;2023-03-16T06:29:51;2.40;84.00
16503;DHT22;53067;48.114;11.694;2023-03-16T06:32:19;2.30;84.30
16503;DHT22;53067;48.114;11.694;2023-03-16T06:34:47;2.40;84.50
16503;DHT22;53067;48.114;11.694;2023-03-16T06:37:15;2.40;84.50
16503;DHT22;53067;48.114;11.694;2023-03-16T06:39:43;2.40;84.60
16503;DHT22;53067;48.114;11.694;2023-03-16T06:42:11;2.40;85.00
16503;DHT22;53067;48.114;11.694;2023-03-16T06:44:38;2.50;85.10
16503;DHT22;53067;48.114;11.694;2023-03-16T06:47:07;2.60;85.10
16503;DHT22;53067;48.114;11.694;2023-03-16T06:49:34;2.60;85.00
16503;DHT22;53067;48.114;11.694;2023-03-16T06:52:02;2.70;84.80
16503;DHT22;53067;48.114;11.694;2023-03-16T06:54:30;2.80;84.70
16503;DHT22;53067;48.114;11.694;2023-03-16T06:56:59;2.80;84.50
16503;DHT22;53067;48.114;11.694;2023-03-16T06:59:27;2.80;84.50
16503;DHT22;53067;48.114;11.694;2023-03-16T07:01:55;2.90;84.70
16503;DHT22;53067;48.114;11.694;2023-03-16T07:04:22;3.00;84.60
16503;DHT22;53067;48.114;11.694;2023-03-16T07:06:50;3.00;84.50
16503;DHT22;53067;48.114;11.694;2023-03-16T07:09:18;3.10;84.50
16503;DHT22;53067;48.114;11.694;2023-03-16T07:11:45;3.10;84.00
16503;DHT22;53067;48.114;11.694;2023-03-16T07:14:13;3.20;84.00
16503;DHT22;53067;48.114;11.694;2023-03-16T07:16:40;3.20;83.90
16503;DHT22;53067;48.114;11.694;2023-03-16T07:19:08;3.20;83.60
16503;DHT22;53067;48.114;11.694;2023-03-16T07:21:35;3.10;83.80
16503;DHT22;53067;48.114;11.694;2023-03-16T07:24:06;3.20;83.90
16503;DHT22;53067;48.114;11.694;2023-03-16T07:26:34;3.20;83.80
16503;DHT22;53067;48.114;11.694;2023-03-16T07:29:02;3.30;83.70
16503;DHT22;53067;48.114;11.694;2023-03-16T07:31:32;3.20;83.70
16503;DHT22;53067;48.114;11.694;2023-03-16T07:34:00;3.30;83.90
16503;DHT22;53067;48.114;11.694;2023-03-16T07:36:28;3.40;84.10
16503;DHT22;53067;48.114;11.694;2023-03-16T07:38:56;3.40;83.90
16503;DHT22;53067;48.114;11.694;2023-03-16T07:41:23;3.50;83.90
16503;DHT22;53067;48.114;11.694;2023-03-16T07:43:51;3.40;83.50
16503;DHT22;53067;48.114;11.694;2023-03-16T07:46:19;3.40;83.90
16503;DHT22;53067;48.114;11.694;2023-03-16T07:48:46;3.50;83.90
16503;DHT22;53067;48.114;11.694;2023-03-16T07:51:14;3.50;83.60
16503;DHT22;53067;48.114;11.694;2023-03-16T07:53:42;3.50;83.70
16503;DHT22;53067;48.114;11.694;2023-03-16T07:56:09;3.50;84.20
16503;DHT22;53067;48.114;11.694;2023-03-16T07:58:37;3.60;84.10
16503;DHT22;53067;48.114;11.694;2023-03-16T08:01:05;3.70;84.00
16503;DHT22;53067;48.114;11.694;2023-03-16T08:03:32;3.80;83.90
16503;DHT22;53067;48.114;11.694;2023-03-16T08:06:00;3.90;83.60
16503;DHT22;53067;48.114;11.694;2023-03-16T08:08:27;4.00;83.00
16503;DHT22;53067;48.114;11.694;2023-03-16T08:10:55;4.00;82.60
16503;DHT22;53067;48.114;11.694;2023-03-16T08:13:23;4.10;82.30
16503;DHT22;53067;48.114;11.694;2023-03-16T08:15:52;4.10;82.00
16503;DHT22;53067;48.114;11.694;2023-03-16T08:18:21;4.20;82.10
16503;DHT22;53067;48.114;11.694;2023-03-16T08:20:49;4.30;81.70
16503;DHT22;53067;48.114;11.694;2023-03-16T08:23:17;4.20;81.10
16503;DHT22;53067;48.114;11.694;2023-03-16T08:25:44;4.30;81.60
16503;DHT22;53067;48.114;11.694;2023-03-16T08:28:14;4.30;81.30
16503;DHT22;53067;48.114;11.694;2023-03-16T08:30:46;4.30;81.50
16503;DHT22;53067;48.114;11.694;2023-03-16T08:33:14;4.40;81.30
16503;DHT22;53067;48.114;11.694;2023-03-16T08:35:43;4.40;81.50
16503;DHT22;53067;48.114;11.694;2023-03-16T08:38:12;4.50;81.40
16503;DHT22;53067;48.114;11.694;2023-03-16T08:40:40;4.60;80.80
16503;DHT22;53067;48.114;11.694;2023-03-16T08:43:17;4.60;80.70
16503;DHT22;53067;48.114;11.694;2023-03-16T08:45:43;4.70;80.00
16503;DHT22;53067;48.114;11.694;2023-03-16T08:48:10;4.70;79.70
16503;DHT22;53067;48.114;11.694;2023-03-16T08:50:41;4.70;79.80
16503;DHT22;53067;48.114;11.694;2023-03-16T08:53:10;4.80;80.30
16503;DHT22;53067;48.114;11.694;2023-03-16T08:55:40;4.90;80.40
16503;DHT22;53067;48.114;11.694;2023-03-16T08:58:08;5.00;80.50
16503;DHT22;53067;48.114;11.694;2023-03-16T09:00:36;5.10;80.20
16503;DHT22;53067;48.114;11.694;2023-03-16T09:03:04;5.10;80.10
16503;DHT22;53067;48.114;11.694;2023-03-16T09:05:32;5.20;79.80
16503;DHT22;53067;48.114;11.694;2023-03-16T09:08:00;5.30;80.80
16503;DHT22;53067;48.114;11.694;2023-03-16T09:10:29;5.50;79.00
16503;DHT22;53067;48.114;11.694;2023-03-16T09:12:58;5.50;78.40
16503;DHT22;53067;48.114;11.694;2023-03-16T09:15:26;5.50;77.60
16503;DHT22;53067;48.114;11.694;2023-03-16T09:17:54;5.70;78.70
16503;DHT22;53067;48.114;11.694;2023-03-16T09:20:23;5.90;79.00
16503;DHT22;53067;48.114;11.694;2023-03-16T09:22:51;6.00;77.80
16503;DHT22;53067;48.114;11.694;2023-03-16T09:25:19;6.10;76.70
16503;DHT22;53067;48.114;11.694;2023-03-16T09:27:46;6.20;76.80
16503;DHT22;53067;48.114;11.694;2023-03-16T09:30:14;6.20;77.00
16503;DHT22;53067;48.114;11.694;2023-03-16T09:32:42;6.30;77.40
16503;DHT22;53067;48.114;11.694;2023-03-16T09:35:10;6.50;76.40
16503;DHT22;53067;48.114;11.694;2023-03-16T09:37:39;6.60;75.50
16503;DHT22;53067;48.114;11.694;2023-03-16T09:40:19;6.80;75.60
16503;DHT22;53067;48.114;11.694;2023-03-16T09:42:40;6.90;74.40
16503;DHT22;53067;48.114;11.694;2023-03-16T09:47:56;7.10;72.90
16503;DHT22;53067;48.114;11.694;2023-03-16T09:50:30;7.30;73.30
16503;DHT22;53067;48.114;11.694;2023-03-16T09:55:35;7.80;70.70
16503;DHT22;53067;48.114;11.694;2023-03-16T10:07:41;8.20;68.60
16503;DHT22;53067;48.114;11.694;2023-03-16T10:12:46;8.40;69.00
16503;DHT22;53067;48.114;11.694;2023-03-16T10:15:23;8.60;66.90
16503;DHT22;53067;48.114;11.694;2023-03-16T10:17:52;8.60;67.40
16503;DHT22;53067;48.114;11.694;2023-03-16T10:20:22;8.60;66.80
16503;DHT22;53067;48.114;11.694;2023-03-16T10:22:51;8.60;67.70
16503;DHT22;53067;48.114;11.694;2023-03-16T10:27:56;8.80;66.00
16503;DHT22;53067;48.114;11.694;2023-03-16T10:30:35;8.80;66.10
16503;DHT22;53067;48.114;11.694;2023-03-16T10:33:20;8.70;66.50
16503;DHT22;53067;48.114;11.694;2023-03-16T10:36:01;8.80;66.60
16503;DHT22;53067;48.114;11.694;2023-03-16T10:38:39;8.90;66.20
16503;DHT22;53067;48.114;11.694;2023-03-16T10:41:01;8.90;65.70
16503;DHT22;53067;48.114;11.694;2023-03-16T10:43:29;9.10;65.50
16503;DHT22;53067;48.114;11.694;2023-03-16T10:46:03;9.20;65.00
16503;DHT22;53067;48.114;11.694;2023-03-16T10:48:30;9.40;64.90
16503;DHT22;53067;48.114;11.694;2023-03-16T10:51:02;9.50;63.90
16503;DHT22;53067;48.114;11.694;2023-03-16T10:53:33;9.60;64.00
16503;DHT22;53067;48.114;11.694;2023-03-16T10:56:09;9.70;64.20
16503;DHT22;53067;48.114;11.694;2023-03-16T10:58:41;9.80;63.40
16503;DHT22;53067;48.114;11.694;2023-03-16T11:01:13;9.90;63.10
16503;DHT22;53067;48.114;11.694;2023-03-16T11:03:40;9.90;62.00
16503;DHT22;53067;48.114;11.694;2023-03-16T11:06:17;10.10;62.00
16503;DHT22;53067;48.114;11.694;2023-03-16T11:08:41;10.30;61.10
16503;DHT22;53067;48.114;11.694;2023-03-16T11:11:29;10.60;60.40
16503;DHT22;53067;48.114;11.694;2023-03-16T11:14:00;10.70;59.70
16503;DHT22;53067;48.114;11.694;2023-03-16T11:22:16;12.20;56.70
16503;DHT22;53067;48.114;11.694;2023-03-16T11:25:08;12.90;54.80
16503;DHT22;53067;48.114;11.694;2023-03-16T11:30:19;13.50;52.60
16503;DHT22;53067;48.114;11.694;2023-03-16T11:32:49;13.80;52.80
16503;DHT22;53067;48.114;11.694;2023-03-16T11:35:38;14.40;51.30
16503;DHT22;53067;48.114;11.694;2023-03-16T11:43:56;16.80;44.90
16503;DHT22;53067;48.114;11.694;2023-03-16T11:46:28;17.20;43.60
16503;DHT22;53067;48.114;11.694;2023-03-16T11:49:13;17.30;42.40
16503;DHT22;53067;48.114;11.694;2023-03-16T11:51:42;17.40;42.60
16503;DHT22;53067;48.114;11.694;2023-03-16T11:57:27;17.90;41.10
16503;DHT22;53067;48.114;11.694;2023-03-16T12:09:03;19.60;37.20
16503;DHT22;53067;48.114;11.694;2023-03-16T12:11:56;19.90;37.00
16503;DHT22;53067;48.114;11.694;2023-03-16T12:14:26;20.50;35.50
16503;DHT22;53067;48.114;11.694;2023-03-16T12:17:13;20.70;34.20
16503;DHT22;53067;48.114;11.694;2023-03-16T12:19:59;21.20;33.70
16503;DHT22;53067;48.114;11.694;2023-03-16T12:22:34;21.70;32.60
16503;DHT22;53067;48.114;11.694;2023-03-16T12:24:58;22.10;31.00
16503;DHT22;53067;48.114;11.694;2023-03-16T12:27:29;22.30;30.20
16503;DHT22;53067;48.114;11.694;2023-03-16T12:33:09;21.90;29.50
16503;DHT22;53067;48.114;11.694;2023-03-16T12:38:38;21.70;29.00
16503;DHT22;53067;48.114;11.694;2023-03-16T12:44:16;21.20;30.20
16503;DHT22;53067;48.114;11.694;2023-03-16T12:46:59;21.50;29.40
16503;DHT22;53067;48.114;11.694;2023-03-16T12:49:26;21.30;28.40
16503;DHT22;53067;48.114;11.694;2023-03-16T12:52:07;21.30;29.00
16503;DHT22;53067;48.114;11.694;2023-03-16T12:54:35;21.60;28.70
16503;DHT22;53067;48.114;11.694;2023-03-16T12:57:06;22.10;29.80
16503;DHT22;53067;48.114;11.694;2023-03-16T12:59:43;22.60;28.80
16503;DHT22;53067;48.114;11.694;2023-03-16T13:02:20;22.60;27.10
16503;DHT22;53067;48.114;11.694;2023-03-16T13:04:54;22.30;26.50
16503;DHT22;53067;48.114;11.694;2023-03-16T13:07:22;22.30;26.90
16503;DHT22;53067;48.114;11.694;2023-03-16T13:10:00;22.60;26.50
16503;DHT22;53067;48.114;11.694;2023-03-16T13:12:29;22.60;26.90
16503;DHT22;53067;48.114;11.694;2023-03-16T13:14:59;22.80;25.80
16503;DHT22;53067;48.114;11.694;2023-03-16T13:17:29;22.70;24.90
16503;DHT22;53067;48.114;11.694;2023-03-16T13:22:48;23.10;25.80
16503;DHT22;53067;48.114;11.694;2023-03-16T13:25:34;23.30;25.30
16503;DHT22;53067;48.114;11.694;2023-03-16T13:27:53;23.70;24.30
16503;DHT22;53067;48.114;11.694;2023-03-16T13:30:36;24.00;24.20
16503;DHT22;53067;48.114;11.694;2023-03-16T13:33:26;24.20;24.10
16503;DHT22;53067;48.114;11.694;2023-03-16T13:35:52;24.20;24.60
16503;DHT22;53067;48.114;11.694;2023-03-16T13:38:22;24.10;24.50
16503;DHT22;53067;48.114;11.694;2023-03-16T13:41:01;23.70;23.40
16503;DHT22;53067;48.114;11.694;2023-03-16T13:43:25;23.30;23.40
16503;DHT22;53067;48.114;11.694;2023-03-16T13:45:54;22.90;24.00
16503;DHT22;53067;48.114;11.694;2023-03-16T13:48:22;22.30;24.50
16503;DHT22;53067;48.114;11.694;2023-03-16T13:50:54;21.50;25.40
16503;DHT22;53067;48.114;11.694;2023-03-16T13:53:29;21.00;26.70
16503;DHT22;53067;48.114;11.694;2023-03-16T13:55:59;20.80;27.50
16503;DHT22;53067;48.114;11.694;2023-03-16T13:58:36;20.50;27.80
16503;DHT22;53067;48.114;11.694;2023-03-16T14:01:17;20.10;27.90
16503;DHT22;53067;48.114;11.694;2023-03-16T14:03:39;19.80;28.90
16503;DHT22;53067;48.114;11.694;2023-03-16T14:06:24;19.80;29.10
16503;DHT22;53067;48.114;11.694;2023-03-16T14:08:57;19.70;29.60
16503;DHT22;53067;48.114;11.694;2023-03-16T14:11:27;19.70;29.80
16503;DHT22;53067;48.114;11.694;2023-03-16T14:13:56;19.50;30.00
16503;DHT22;53067;48.114;11.694;2023-03-16T14:16:26;19.40;30.20
16503;DHT22;53067;48.114;11.694;2023-03-16T14:19:05;19.40;29.60
16503;DHT22;53067;48.114;11.694;2023-03-16T14:21:51;19.20;29.40
16503;DHT22;53067;48.114;11.694;2023-03-16T14:24:28;19.10;29.10
16503;DHT22;53067;48.114;11.694;2023-03-16T14:27:24;18.90;29.60
16503;DHT22;53067;48.114;11.694;2023-03-16T14:29:31;18.60;30.40
16503;DHT22;53067;48.114;11.694;2023-03-16T14:31:59;18.60;30.90
16503;DHT22;53067;48.114;11.694;2023-03-16T14:34:29;18.50;31.30
16503;DHT22;53067;48.114;11.694;2023-03-16T14:39:34;18.30;31.50
16503;DHT22;53067;48.114;11.694;2023-03-16T14:42:04;18.20;31.70
16503;DHT22;53067;48.114;11.694;2023-03-16T14:44:34;18.20;31.10
16503;DHT22;53067;48.114;11.694;2023-03-16T14:47:04;18.00;31.00
16503;DHT22;53067;48.114;11.694;2023-03-16T14:49:35;17.60;31.20
16503;DHT22;53067;48.114;11.694;2023-03-16T14:54:43;17.00;32.40
16503;DHT22;53067;48.114;11.694;2023-03-16T14:57:16;16.70;33.20
16503;DHT22;53067;48.114;11.694;2023-03-16T14:59:45;16.40;33.70
16503;DHT22;53067;48.114;11.694;2023-03-16T15:02:22;16.10;34.20
16503;DHT22;53067;48.114;11.694;2023-03-16T15:04:50;16.00;35.50
16503;DHT22;53067;48.114;11.694;2023-03-16T15:09:53;15.60;36.00
16503;DHT22;53067;48.114;11.694;2023-03-16T15:12:22;15.40;37.20
16503;DHT22;53067;48.114;11.694;2023-03-16T15:14:51;15.20;36.80
16503;DHT22;53067;48.114;11.694;2023-03-16T15:17:37;14.90;36.70
16503;DHT22;53067;48.114;11.694;2023-03-16T15:20:12;14.50;37.30
16503;DHT22;53067;48.114;11.694;2023-03-16T15:22:41;14.30;38.30
16503;DHT22;53067;48.114;11.694;2023-03-16T15:25:33;14.10;39.10
16503;DHT22;53067;48.114;11.694;2023-03-16T15:28:13;13.90;39.80
16503;DHT22;53067;48.114;11.694;2023-03-16T15:30:47;13.80;40.30
16503;DHT22;53067;48.114;11.694;2023-03-16T15:33:12;13.70;40.60
16503;DHT22;53067;48.114;11.694;2023-03-16T15:35:40;13.60;41.30
16503;DHT22;53067;48.114;11.694;2023-03-16T15:38:13;13.50;41.50
16503;DHT22;53067;48.114;11.694;2023-03-16T15:40:43;13.40;42.10
16503;DHT22;53067;48.114;11.694;2023-03-16T15:43:14;13.20;41.70
16503;DHT22;53067;48.114;11.694;2023-03-16T15:45:42;13.10;42.70
16503;DHT22;53067;48.114;11.694;2023-03-16T15:48:11;13.00;43.20
16503;DHT22;53067;48.114;11.694;2023-03-16T15:50:43;13.00;43.60
16503;DHT22;53067;48.114;11.694;2023-03-16T15:53:21;12.80;43.20
16503;DHT22;53067;48.114;11.694;2023-03-16T15:55:45;12.60;43.70
16503;DHT22;53067;48.114;11.694;2023-03-16T15:58:19;12.50;43.80
16503;DHT22;53067;48.114;11.694;2023-03-16T16:00:49;12.40;43.70
16503;DHT22;53067;48.114;11.694;2023-03-16T16:03:17;12.30;43.80
16503;DHT22;53067;48.114;11.694;2023-03-16T16:05:44;12.20;44.00
16503;DHT22;53067;48.114;11.694;2023-03-16T16:08:12;12.10;44.40
16503;DHT22;53067;48.114;11.694;2023-03-16T16:10:40;12.00;44.80
16503;DHT22;53067;48.114;11.694;2023-03-16T16:13:24;11.90;45.30
16503;DHT22;53067;48.114;11.694;2023-03-16T16:15:52;11.80;45.80
16503;DHT22;53067;48.114;11.694;2023-03-16T16:18:33;11.80;46.30
16503;DHT22;53067;48.114;11.694;2023-03-16T16:21:05;11.70;46.70
16503;DHT22;53067;48.114;11.694;2023-03-16T16:23:34;11.70;46.90
16503;DHT22;53067;48.114;11.694;2023-03-16T16:26:06;11.70;47.00
16503;DHT22;53067;48.114;11.694;2023-03-16T16:28:34;11.60;47.20
16503;DHT22;53067;48.114;11.694;2023-03-16T16:31:02;11.60;47.20
16503;DHT22;53067;48.114;11.694;2023-03-16T16:33:32;11.50;47.50
16503;DHT22;53067;48.114;11.694;2023-03-16T16:36:09;11.50;47.70
16503;DHT22;53067;48.114;11.694;2023-03-16T16:38:30;11.50;48.30
16503;DHT22;53067;48.114;11.694;2023-03-16T16:41:05;11.50;48.30
16503;DHT22;53067;48.114;11.694;2023-03-16T16:43:35;11.50;48.10
16503;DHT22;53067;48.114;11.694;2023-03-16T16:46:05;11.40;48.20
16503;DHT22;53067;48.114;11.694;2023-03-16T16:48:35;11.30;48.60
16503;DHT22;53067;48.114;11.694;2023-03-16T16:51:05;11.20;49.60
16503;DHT22;53067;48.114;11.694;2023-03-16T16:53:33;11.20;49.30
16503;DHT22;53067;48.114;11.694;2023-03-16T16:56:01;11.20;49.50
16503;DHT22;53067;48.114;11.694;2023-03-16T16:58:28;11.20;49.50
16503;DHT22;53067;48.114;11.694;2023-03-16T17:00:57;11.20;49.60